x

Silver Bay, Mn (slvm5) Weather Station

6:40am - Sat 29th Aug 2015 All times are CDT. -5 hours from GMT.

  • Wind
    8mph, 13mph gusts
  • Air Temp 58°f
  • Sea Pressure 1015.2mb
  • Silver Bay, Mn
  • Silver Bay, Mn

More Historic Weather Station data

Upgrade to MSW Pro to gain access to the past 30 days of data for over 8000 Wavebouys and Weather Stations around the globe.

Join Pro

Comparision Forecast

View Surf forecast
   
Sat 08/29 6:40am 8 13 mph 1015.2mb 58f
6:30am 6 15 mph 1014.9mb 58f
6:20am 9 18 mph 1015.2mb 58f
6:10am 15 18 mph 1015.2mb 58f
6:00am 14 21 mph 1015.2mb 58f
5:40am 16 22 mph 1015.6mb 58f
5:30am 15 25 mph 1015.6mb 58f
5:20am 17 25 mph 1015.6mb 58f
5:10am 18 24 mph 1015.6mb 58f
5:00am 18 25 mph 1015.6mb 58f
4:40am 24 30 mph 1015.6mb 57f
4:30am 24 28 mph 1015.6mb 56f
4:20am 24 28 mph 1015.6mb 56f
4:10am 24 31 mph 1015.9mb 56f
4:06am 18 31 mph 1016.3mb 55f
4:00am 10 18 mph 1015.2mb 55f
3:40am 10 17 mph 1016.6mb 57f
3:30am 7 11 mph 1017.3mb 57f
3:20am 8 16 mph 1017.3mb 60f
3:10am  -  14 mph 1018.3mb 60f
3:00am 5 17 mph 1018.6mb 58f
2:40am 3 10 mph 1017.3mb 57f
2:30am 5 10 mph 1017.3mb 56f
2:20am 7 11 mph 1016.9mb 57f
2:10am 8 13 mph 1016.9mb 56f
2:00am 7 11 mph 1016.9mb 56f
1:40am 5 9 mph 1016.6mb 55f
1:30am  -  6 mph 1016.6mb 55f
1:20am 2 7 mph 1016.6mb 56f
1:10am  -  mph 1016.6mb 55f
1:00am  -  6 mph 1016.3mb 55f
12:40am 7 11 mph 1015.6mb 54f
12:30am 11 13 mph 1015.6mb 54f
12:20am 11 13 mph 1015.2mb 54f
12:10am 11 14 mph 1014.9mb 55f
12:00am 8 16 mph 1014.6mb 56f
Fri 08/28 11:40pm 9 11 mph 1014.2mb 57f
11:30pm 8 16 mph 1014.2mb 58f
11:20pm 8 11 mph 1014.2mb 58f
11:10pm 9 16 mph 1014.2mb 57f
11:00pm 16 18 mph 1014.2mb 58f
10:40pm 21 23 mph 1013.5mb 59f
10:30pm 21 22 mph 1013.5mb 60f
10:20pm 17 21 mph 1013.9mb 60f
10:10pm 17
mph
1013.5mb 62f
10:00pm 13 20 mph 1013.5mb 60f
9:40pm 15 18 mph 1013.2mb 60f
9:30pm 14 21 mph 1013.2mb 59f
9:20pm 18 21 mph 1013.5mb 59f
9:10pm 18 20 mph 1013.5mb 60f
9:00pm 13 14 mph 1013.5mb 60f
8:40pm 11 14 mph 1013.5mb 59f
8:30pm 14 20 mph 1013.2mb 58f
8:20pm 18 20 mph 1012.9mb 58f
8:10pm 15 17 mph 1012.9mb 58f
8:00pm 15 17 mph 1012.9mb 58f
7:40pm 15 17 mph 1013.2mb 59f
7:30pm 15 18 mph 1012.9mb 59f
7:20pm 16 18 mph 1012.5mb 60f
7:10pm 17 18 mph 1012.5mb 60f
7:00pm 17 18 mph 1012.5mb 60f
6:40pm 13 18 mph 1012.5mb 61f
6:30pm 18 21 mph 1012.5mb 61f
6:20pm 18 20 mph 1012.2mb 62f
6:10pm 16 17 mph 1012.2mb 64f
6:00pm 14 16 mph 1012.2mb 63f
5:40pm 9 17 mph 1012.2mb 62f
5:30pm 14 16 mph 1012.2mb 63f
5:20pm 13 14 mph 1012.2mb 63f
5:10pm 13 17 mph 1012.2mb 62f
5:00pm 14 17 mph 1011.9mb 62f
4:40pm 9 14 mph 1012.2mb 62f
4:30pm 14 16 mph 1012.2mb 61f
4:20pm 16 17 mph 1012.5mb 61f
4:10pm 15 18 mph 1012.5mb 61f
4:00pm 17 18 mph 1012.5mb 61f
3:40pm 18 22 mph 1012.5mb 65f
3:30pm 18 22 mph 1012.9mb 66f
3:20pm 14 18 mph 1012.9mb 61f
3:10pm 14 16 mph 1012.9mb 61f
3:00pm 14
mph
1013.2mb 64f
2:40pm 13 17 mph 1013.5mb 62f
2:30pm 15 16 mph 1013.9mb 60f
2:20pm 13 14 mph 1013.9mb 60f
2:10pm 13 15 mph 1013.9mb 61f
2:00pm 13 14 mph 1013.9mb 59f
1:40pm 9 17 mph 1013.9mb 60f
1:30pm 10 18 mph 1014.2mb 60f
1:20pm 17 18 mph 1014.6mb 59f
1:10pm 17 21 mph 1014.6mb 59f
1:00pm 17 20 mph 1014.6mb 61f
12:40pm 11 16 mph 1014.6mb 59f
12:30pm 14 15 mph 1014.6mb 57f
12:20pm 15 16 mph 1014.6mb 56f
12:10pm 13 17 mph 1014.2mb 57f
12:00pm 11 13 mph 1014.6mb 56f
11:40am 11 13 mph 1014.6mb 56f
11:30am 5 7 mph 1014.9mb 57f
11:20am 6 7 mph 1014.9mb 57f
11:10am 5 6 mph 1014.9mb 58f
11:00am 5 6 mph 1014.9mb 56f
10:40am 5 6 mph 1014.9mb 59f
10:30am 5 9 mph 1014.9mb 56f
10:20am 6 8 mph 1014.9mb 56f
10:10am 5 7 mph 1014.6mb 56f
10:00am 5 8 mph 1014.6mb 55f
9:40am 5 10 mph 1014.6mb 55f
9:30am 8 11 mph 1014.2mb 55f
9:20am 3 10 mph 1014.6mb 54f
9:10am 3 10 mph 1014.6mb 55f
9:00am  -  11 mph 1014.2mb 56f
8:40am 5 8 mph 1014.2mb 55f
8:30am 6 11 mph 1014.6mb 55f
8:20am 9 11 mph 1014.6mb 56f
8:10am 8 10 mph 1014.6mb 56f
8:00am 6 8 mph 1014.9mb 56f
7:40am 5 9 mph 1014.9mb 56f
7:30am 7 9 mph 1014.9mb 55f
7:20am 6 10 mph 1014.9mb 55f
7:10am 5 10 mph 1014.9mb 56f
7:00am  -  mph 1014.9mb 56f
6:50am  -  mph 1014.9mb 56f
6:40am  -  mph 1014.6mb 56f
6:30am  -  mph 1014.6mb 56f
6:20am  -  mph 1014.6mb 56f
6:10am  -  mph 1014.6mb 56f
6:00am  -  mph 1014.6mb 56f
5:50am  -  mph 1014.6mb 56f
5:40am  -  mph 1014.6mb 56f
5:30am  -  mph 1014.6mb 56f
5:20am  -  mph 1014.6mb 56f
5:10am  -  mph 1014.6mb 56f
5:00am  -  mph 1014.6mb 55f
4:50am  -  10 mph 1014.9mb 55f
4:40am 6 10 mph 1014.9mb 55f
4:30am  -  mph 1014.9mb 56f
4:20am  -  8 mph 1014.9mb 55f
4:10am 9 13 mph 1015.2mb 55f
4:00am  -  mph 1015.2mb 54f
3:50am  -  mph 1014.9mb 55f
3:40am  -  mph 1014.9mb 55f
3:30am  -  mph 1014.9mb 56f
3:20am  -  mph 1014.9mb 56f
3:10am  -  mph 1014.9mb 56f
3:00am  -  mph 1014.9mb 56f
2:50am  -  mph 1014.9mb 57f
2:40am  -  mph 1014.9mb 56f
2:30am  -  mph 1014.9mb 56f
2:20am  -  mph 1014.9mb 56f
2:10am  -  mph 1014.9mb 55f
2:00am  -  mph 1014.9mb 55f
1:50am  -  mph 1014.9mb 55f
1:40am  -  mph 1014.6mb 55f
1:30am  -  mph 1014.6mb 55f
1:20am  -  mph 1014.9mb 55f
1:10am  -  mph 1014.9mb 55f
1:00am  -  mph 1014.9mb 56f
12:50am  -  mph 1014.9mb 55f
12:40am  -  11 mph 1015.2mb 55f
12:30am 5 10 mph 1015.2mb 56f
12:20am 6 10 mph 1015.2mb 56f
12:10am 8 14 mph 1015.2mb 56f
12:00am 6 10 mph 1015.2mb 56f
Thu 08/27 11:50pm 6 10 mph 1015.6mb 56f
11:40pm 7 13 mph 1015.6mb 56f
11:30pm 7 11 mph 1015.6mb 56f
11:20pm 6 10 mph 1015.6mb 56f
11:10pm 5 8 mph 1015.6mb 57f
11:00pm 5 10 mph 1015.6mb 57f
10:50pm 6 10 mph 1015.6mb 57f
10:40pm 7 10 mph 1015.6mb 57f
10:30pm 8 11 mph 1015.9mb 58f
10:20pm 7 11 mph 1015.9mb 57f
10:10pm 7 11 mph 1015.9mb 57f
10:00pm 6 11 mph 1015.9mb 58f
9:50pm 5 10 mph 1016.3mb 57f
9:40pm 6 11 mph 1016.3mb 56f
9:30pm 6 10 mph 1016.3mb 57f
9:20pm 6 11 mph 1016.3mb 58f
9:10pm 5 10 mph 1016.3mb 58f
9:00pm 5 9 mph 1016.3mb 58f
8:50pm 5 8 mph 1016.3mb 58f
8:40pm 5 10 mph 1016.3mb 57f
8:30pm 5 9 mph 1016.3mb 57f
8:20pm 5 8 mph 1016.3mb 57f
8:10pm 5 9 mph 1016.3mb 58f
8:00pm 6 10 mph 1016.3mb 58f
7:50pm 5 9 mph 1015.9mb 57f
7:40pm 5 9 mph 1016.3mb 57f
7:30pm 5 9 mph 1016.3mb 57f
7:20pm 5 9 mph 1016.3mb 57f
7:10pm 6 9 mph 1016.3mb 57f
7:00pm 5 10 mph 1016.3mb 58f
6:50pm 5 9 mph 1016.3mb 58f
6:40pm 5 9 mph 1016.3mb 58f
6:30pm 6 9 mph 1016.3mb 57f
6:20pm 5 8 mph 1016.6mb 57f
6:10pm 5 8 mph 1016.6mb 58f
6:00pm 5 9 mph 1016.6mb 58f
5:50pm 5 9 mph 1016.6mb 59f
5:40pm 5 10 mph 1016.6mb 59f
5:30pm 2 9 mph 1016.6mb 60f
5:20pm 3 10 mph 1016.6mb 60f
5:10pm 3 9 mph 1016.6mb 59f
5:00pm 6 9 mph 1016.6mb 59f
4:50pm 6 10 mph 1016.6mb 60f
4:40pm 6 9 mph 1016.6mb 59f
4:30pm 6 10 mph 1016.6mb 58f
4:20pm 5 10 mph 1016.6mb 59f
4:10pm 7 11 mph 1016.9mb 57f
4:00pm 6 10 mph 1016.9mb 58f
3:50pm 5 10 mph 1016.9mb 58f
3:40pm 5 10 mph 1016.9mb 60f
3:30pm 5 10 mph 1016.9mb 62f
3:20pm 5 9 mph 1017.3mb 61f
3:10pm 5 9 mph 1017.3mb 59f
3:00pm 5 8 mph 1017.3mb 58f
2:50pm 5 9 mph 1017.3mb 59f
2:40pm 6 9 mph 1017.3mb 60f
2:30pm 5 7 mph 1017.6mb 59f
2:20pm 6 9 mph 1017.6mb 58f
2:10pm 5 8 mph 1017.6mb 57f
2:00pm 6
mph
1017.9mb 56f
1:50pm 6 7 mph 1017.9mb 56f
1:40pm 6 7 mph 1018.3mb 56f
1:30pm 5 6 mph 1018.3mb 57f
1:20pm 5 6 mph 1018.3mb 55f
1:10pm 5 6 mph 1018.3mb 55f
1:00pm 5 7 mph 1018.3mb 55f
12:50pm 6
mph
1018.6mb 55f
12:40pm 5 6 mph 1018.6mb 56f
12:30pm 5 6 mph 1018.6mb 55f
12:20pm 5 8 mph 1019mb 55f
12:10pm 3 6 mph 1019mb 55f
12:00pm 3 6 mph 1019mb 55f
11:50am 6
mph
1019mb 56f
11:40am 5 7 mph 1019mb 55f
11:30am 3 5 mph 1019.3mb 55f
11:20am 3 9 mph 1019.3mb 55f
11:10am 7 13 mph 1019.3mb 55f
11:00am 11 14 mph 1019.3mb 54f
10:50am 9 11 mph 1019.3mb 54f
10:40am 9 10 mph 1019.3mb 55f
10:30am  -  mph 1019.6mb 56f
10:20am  -  mph 1019.6mb 58f
10:10am  -  mph 1020mb 54f
10:00am  -  mph 1020mb 55f
9:50am  -  mph 1020mb 55f
9:40am  -  mph 1020mb 55f
9:30am  -  8 mph 1019.6mb 55f
9:20am 8 11 mph 1020mb 53f
9:10am 8 10 mph 1019.6mb 53f
9:00am  -  mph 1019.6mb 53f
8:50am  -  mph 1019.6mb 53f
8:40am  -  mph 1020mb 53f
8:30am  -  mph 1020mb 53f
8:20am  -  mph 1020mb 54f
8:10am  -  mph 1020mb 55f
8:00am  -  mph 1020mb 56f
7:50am  -  6 mph 1020mb 55f
7:40am 3 11 mph 1020mb 55f
7:30am 8 11 mph 1020mb 53f
7:20am 8 11 mph 1020.3mb 51f
7:10am  -  mph 1020.3mb 52f
7:00am  -  mph 1020.3mb 51f
6:50am  -  mph 1020.3mb 51f
6:40am  -  mph 1020.7mb 50f
6:30am  -  mph 1020.7mb 49f
6:20am  -  10 mph 1020.7mb 49f
6:10am  -  mph 1020.3mb 49f
6:00am 3 13 mph 1020.3mb 50f
5:50am  -  mph 1020.3mb 50f
5:40am  -  14 mph 1020.3mb 50f
5:30am  -  mph 1020mb 49f
5:20am  -  mph 1020mb 50f
5:10am  -  mph 1020mb 50f
5:00am  -  mph 1020mb 50f
4:50am  -  mph 1020mb 50f
4:40am  -  mph 1019.6mb 50f
4:30am  -  mph 1019.6mb 49f
4:20am  -  11 mph 1019.6mb 51f
4:10am 8 11 mph 1019.6mb 51f
4:00am 10 13 mph 1019.6mb 51f
3:50am 8 11 mph 1019.6mb 51f
3:40am 8 11 mph 1019.6mb 51f
3:30am 8 11 mph 1019.6mb 51f
3:20am 7 13 mph 1019.6mb 50f
3:10am 8 11 mph 1019.6mb 50f
3:00am  -  mph 1020mb 51f
2:50am  -  10 mph 1019.6mb 51f
2:40am 9 11 mph 1020mb 51f
2:30am 9 11 mph 1020mb 50f
2:20am 6 11 mph 1020mb 51f
2:10am  -  mph 1020mb 51f
2:00am  -  mph 1019.6mb 51f
1:50am  -  mph 1020mb 51f
1:40am  -  mph 1020mb 52f
1:30am  -  10 mph 1020mb 52f
1:20am  -  mph 1020.3mb 52f
1:10am  -  9 mph 1020.3mb 53f
1:00am  -  9 mph 1020.3mb 53f
12:50am 5 11 mph 1020.3mb 53f
12:40am  -  8 mph 1020.3mb 52f
12:30am  -  mph 1020.3mb 52f
12:20am 1 10 mph 1020.3mb 52f
12:10am 7 10 mph 1020.3mb 52f
12:00am 6 9 mph 1020.3mb 52f
Wed 08/26 11:50pm 5 9 mph 1020.3mb 52f
11:40pm 3 9 mph 1020.3mb 53f
11:30pm 5 9 mph 1020mb 51f
11:20pm 5 9 mph 1020.3mb 52f
11:10pm  -  mph 1020.3mb 52f
11:00pm  -  mph 1020.3mb 52f
10:50pm  -  mph 1020.3mb 52f
10:40pm  -  10 mph 1020mb 53f
10:30pm 6 9 mph 1020mb 53f
10:20pm 5 9 mph 1020mb 56f
10:10pm  -  11 mph 1020mb 56f
10:00pm 9 13 mph 1020mb 55f
9:50pm 6 9 mph 1020mb 54f
9:40pm 8 11 mph 1020mb 54f
9:30pm  -  9 mph 1020mb 55f
9:20pm 7 10 mph 1019.6mb 56f
9:10pm 3 8 mph 1019.6mb 54f
9:00pm  -  1 mph 1019.3mb 61f
8:50pm  -  mph 1019.3mb 58f
8:40pm  -  8 mph 1019.3mb 62f
8:30pm 5 7 mph 1019.3mb 62f
8:20pm 3 8 mph 1019.3mb 61f
8:10pm 3 5 mph 1019.3mb 62f
8:00pm 3 5 mph 1019.3mb 62f
7:50pm 3 5 mph 1019mb 61f
7:40pm 3 5 mph 1019mb 60f
7:30pm 3 5 mph 1019mb 60f
7:20pm 3 5 mph 1019.3mb 61f
7:10pm 3 6 mph 1019.3mb 62f
7:00pm 5 7 mph 1019.3mb 63f
6:50pm 5 6 mph 1019.3mb 63f
6:40pm 5 6 mph 1019.6mb 62f
6:30pm 3 5 mph 1019.6mb 62f
6:20pm 5 6 mph 1019.6mb 62f
6:10pm 3 8 mph 1019.6mb 62f
6:00pm 3 5 mph 1019.6mb 61f
5:50pm 3 5 mph 1019.6mb 61f
5:40pm 3
mph
1019.6mb 58f
5:30pm 3 6 mph 1020mb 57f
5:20pm 3 7 mph 1019.6mb 56f
5:10pm 5 7 mph 1019.6mb 56f
5:00pm 1 7 mph 1020mb 58f
4:50pm 3 7 mph 1020mb 58f
4:40pm  -  7 mph 1020mb 55f
4:30pm 3 10 mph 1020mb 56f
4:20pm 8 15 mph 1020mb 57f
4:10pm 14 15 mph 1020mb 59f
4:00pm 11 14 mph 1020mb 58f
3:50pm 13 14 mph 1020mb 61f
3:40pm 6 11 mph 1020.3mb 60f
3:30pm 11 13 mph 1020.3mb 58f
3:20pm 13 14 mph 1020.3mb 57f
3:10pm 9 17 mph 1020.3mb 57f
3:00pm 13 17 mph 1020.3mb 56f
2:50pm 15 17 mph 1020.3mb 56f
2:40pm 16 18 mph 1020.7mb 56f
2:30pm 14 16 mph 1020.3mb 56f
2:20pm 15 17 mph 1020.7mb 57f
2:10pm 14 17 mph 1020.7mb 58f
2:00pm 14 18 mph 1021mb 58f
1:50pm 16 18 mph 1020.7mb 57f
1:40pm 11 16 mph 1021mb 56f
1:30pm 15 17 mph 1021mb 56f
1:20pm 15 17 mph 1021.3mb 56f
1:10pm 16 18 mph 1021mb 56f
1:00pm 17 20 mph 1021mb 58f
12:50pm 17 20 mph 1021.3mb 56f
12:40pm 17 18 mph 1021.3mb 56f
12:30pm 15 16 mph 1021.3mb 54f
12:20pm 13 15 mph 1021.3mb 55f
12:10pm 13 15 mph 1021.3mb 54f
12:00pm 13 17 mph 1021.3mb 55f
11:50am 15 17 mph 1021.3mb 55f
11:40am 14 18 mph 1021.7mb 54f
11:30am 13 15 mph 1021.7mb 56f
11:20am 10 15 mph 1021.7mb 54f
11:10am 13 16 mph 1021.7mb 54f
11:00am 9 16 mph 1021.7mb 55f
10:50am 6 7 mph 1021.7mb 55f
10:40am 6 7 mph 1021.7mb 55f
10:30am 6
mph
1021.7mb 57f
10:20am 6
mph
1021.7mb 58f
10:10am 5 6 mph 1021.7mb 58f
10:00am 3 7 mph 1021.7mb 59f
9:50am 6 8 mph 1021.7mb -
9:40am  -  9 mph 1021.7mb 67f
9:30am 3 10 mph 1021.7mb 65f
9:20am 3 9 mph 1021.7mb 64f
9:10am 3 10 mph 1021.7mb 64f
9:00am 5 9 mph 1021.7mb 63f
8:50am 3 10 mph 1021.7mb 64f
8:40am 3 11 mph 1021.7mb 64f
8:30am 5 10 mph 1021.7mb 63f
8:20am 7 13 mph 1021.7mb 62f
8:10am 7 13 mph 1021.7mb 62f
8:00am 7 15 mph 1021.3mb 62f
7:50am 9 14 mph 1021.3mb 61f
7:40am 7 11 mph 1021.3mb 60f
7:30am 5 11 mph 1021.3mb 59f
7:20am 8 13 mph 1021.3mb 58f
7:10am 7 11 mph 1021.3mb 57f
7:00am 7 14 mph 1021mb 56f
6:50am 5 11 mph 1021mb 56f
6:40am 7 13 mph 1020.7mb 54f
6:30am 6 13 mph 1020.7mb 53f
6:20am 6 11 mph 1020.7mb 53f
6:10am 6 13 mph 1020.3mb 53f
6:00am 7 15 mph 1020.3mb 53f
5:50am 7 13 mph 1020.3mb 53f
5:40am 7 13 mph 1020.3mb 53f
5:30am 5 9 mph 1020.3mb 53f
5:20am 3 9 mph 1020.3mb 53f
5:10am 2 9 mph 1020.3mb 53f
5:00am  -  9 mph 1020mb 53f
4:50am 6 9 mph 1020mb 54f
4:40am  -  10 mph 1020mb 54f
4:30am 5 11 mph 1020mb 55f
4:20am 5 13 mph 1020mb 55f
4:10am 8 15 mph 1019.6mb 55f
4:00am 8 14 mph 1019.6mb 55f
3:50am 10 15 mph 1019.6mb 56f
3:40am 7 15 mph 1019.6mb 56f
3:30am 8 16 mph 1019.6mb 56f
3:20am 9 15 mph 1019.3mb 55f
3:10am 7 14 mph 1019.3mb 55f
3:00am 10 15 mph 1019mb 55f
2:50am 10 17 mph 1019mb 55f
2:40am 10 18 mph 1019mb 56f
2:30am 11 16 mph 1019mb 55f
2:20am 9 15 mph 1019mb 55f
2:10am 7 13 mph 1019mb 55f
2:00am 6 11 mph 1019mb 55f
1:50am 8 14 mph 1019mb 55f
1:40am 6 11 mph 1019mb 55f
1:30am 7 11 mph 1019mb 55f
1:20am 6 13 mph 1019mb 55f
1:10am 5 14 mph 1019mb 54f
1:00am  -  11 mph 1019mb 54f
12:50am 5 14 mph 1019mb 54f
12:40am 5 10 mph 1019mb 54f
12:30am 5 11 mph 1019mb 53f
12:20am  -  9 mph 1019mb 52f
12:10am 3 9 mph 1019mb 52f
12:00am 5 10 mph 1019.3mb 52f
Tue 08/25 11:50pm 5 9 mph 1019mb 53f
11:40pm  -  7 mph 1019mb 54f
11:30pm  -  7 mph 1019mb 54f
11:20pm  -  9 mph 1019mb 54f
11:10pm  -  6 mph 1019mb 54f
11:00pm  -  8 mph 1019mb 53f
10:50pm 5 10 mph 1019mb 53f
10:40pm 5 8 mph 1019mb 53f
10:30pm  -  8 mph 1019mb 53f
10:20pm 6 8 mph 1019mb 53f
10:10pm 2 9 mph 1019mb 54f
10:00pm 6 8 mph 1019mb 53f
9:50pm 5 9 mph 1019mb 53f
9:40pm 6 8 mph 1018.6mb 53f
9:30pm 6 8 mph 1018.6mb 52f
9:20pm  -  7 mph 1018.6mb 53f
9:10pm  -  mph 1018.6mb 54f
9:00pm  -  mph 1018.6mb 54f
8:50pm  -  6 mph 1018.6mb 53f
8:40pm  -  5 mph 1018.6mb 53f
8:30pm 3 7 mph 1018.6mb 54f
8:20pm 2 6 mph 1018.3mb 56f
8:10pm  -  mph 1018.3mb 55f
8:00pm  -  6 mph 1018.3mb 59f
7:50pm  -  1 mph 1018.3mb 59f
7:40pm  -  10 mph 1018.3mb 60f
7:30pm 5 10 mph 1018.3mb 60f
7:20pm  -  9 mph 1018.3mb 61f
7:10pm 3 8 mph 1018.3mb 60f
7:00pm 2 10 mph 1018.3mb 60f
6:50pm 9 21 mph 1018.3mb 60f
6:40pm 8 16 mph 1018.3mb 60f
6:30pm 6 13 mph 1018.3mb 61f
6:20pm 2 10 mph 1018.3mb 61f
6:10pm  -  13 mph 1018.3mb 61f
6:00pm 5 15 mph 1017.9mb 61f
5:50pm 3 7 mph 1017.9mb 62f
5:40pm 5 15 mph 1017.9mb 61f
5:30pm 7 17 mph 1018.3mb 61f
5:20pm 6 22 mph 1017.9mb 61f
5:10pm 9 16 mph 1017.9mb 61f
5:00pm 3 9 mph 1017.9mb 62f
4:50pm 6 16 mph 1017.6mb 62f
4:40pm 5 13 mph 1017.6mb 62f
4:30pm 7 13 mph 1017.6mb 62f
4:20pm 9 18 mph 1017.6mb 62f
4:10pm 10 17 mph 1017.6mb 62f
4:00pm 9 17 mph 1017.3mb 63f
3:50pm 6 13 mph 1017.3mb 63f
3:40pm 5 17 mph 1017.3mb 63f
3:30pm 15 20 mph 1017.3mb 63f
3:20pm 5 14 mph 1017.3mb 64f
3:10pm 6 14 mph 1017.3mb 63f
3:00pm 9 17 mph 1017.3mb 63f
2:50pm 11 20 mph 1016.9mb 63f
2:40pm 9 17 mph 1016.9mb 63f
2:30pm 8 17 mph 1016.9mb 63f
2:20pm 10 17 mph 1016.9mb 63f
2:10pm 7 18 mph 1016.6mb 64f
2:00pm 9 18 mph 1016.6mb 64f
1:50pm 8 13 mph 1016.6mb 64f
1:40pm 5 16 mph 1016.6mb 63f
1:30pm 6 11 mph 1016.6mb 63f
1:20pm 11 18 mph 1016.6mb 62f
1:10pm 7 14 mph 1016.6mb 63f
1:00pm 7 24 mph 1016.6mb 63f